Hauptseite
METAR-TAF:

METAR-TAF

Flughäfen :

Neuquén, Argentinien

Breite: 38-57S, Länge: 068-08W, Höhe: 270 m

Beobachtung

Neuester Wetterbericht von vor 22 Minuten, um 07:00 UTC
Wind 2 kt aus Südost
Temperatur 4°C
Luftfeuchtigkeit 87%
Luftdruck 1019 hPa
Sichtweite 10 km oder mehr
keine Wolken unter 1500 m und keine Kumulonimbus oder Gewitterwolken

METAR: SAZN 280700Z 14002KT CAVOK 04/02 Q1019

Zeit: 04:22 (07:22 UTC)

Prognose

Neuester Wetterbericht von vor 2 Stunden und 22 Minuten, um 05:00 UTC
Gültige Prognose vom 28 um 06 UTC bis 29 um 06 UTC
Wind 5 kt aus Südost
Sichtweite 10 km oder mehr
keine Wolken unter 1500 m und keine Kumulonimbus oder Gewitterwolken
Übergehend zu
vom 28 um 12 UTC bis 28 um 14 UTC
Wind 5 kt aus Ost

TAF: SAZN 280500Z 2806/2906 14005KT CAVOK TX12/2818Z TN02/2811Z BECMG 2812/2814 09005KT

Wetterbeobachtungen und Prognosen von mehr als 4000 Flughäfen (METAR und TAF Bericht).

Die verfügbaren Stationen werden durch gelbe und rote Markierungen auf der Karte dargestellt.

Führen Sie die Maus auf sie, um den Namen der Station zu sehen.

Darauf klicken, um die Beobachtung von Wetterbeobachtungen und Prognosen zu sehen.

Um die Karte zu ändern : klicken Sie auf den grünen Tasten mit einem schwarzen Kreuz Zum Vergrößern, auf den grünen Button mit einem Gedankenstrich zu verkleinern, oder auf die grünen Pfeile für benachbarte Karten.


METAR-TAF: